Time;durP1;ratioP1;P1;durP2;ratioP2;P2;SDS_P1;SDS_P2;PMS_P1;PMS_P2;Temp;Humidity;BMP_temperature;BMP_pressure;BME280_temperature;BME280_humidity;BME280_pressure;Samples;Min_cycle;Max_cycle;Signal;HPM_P1;HPM_P2
2021/12/07 00:01:25;;;;;;;42.28;25.90;;;2.60;99.90;;;;;;5029600;28;20259;-73
2021/12/07 00:03:53;;;;;;;40.28;24.85;;;2.60;99.90;;;;;;5019707;28;20288;-73
2021/12/07 00:06:21;;;;;;;45.63;24.65;;;2.60;99.90;;;;;;5021459;28;20197;-74
2021/12/07 00:08:53;;;;;;;38.72;24.95;;;2.60;99.90;;;;;;5020869;28;20719;-74
2021/12/07 00:11:21;;;;;;;37.92;23.65;;;2.60;99.90;;;;;;5026393;28;20318;-74
2021/12/07 00:13:50;;;;;;;41.92;24.30;;;2.60;99.90;;;;;;5028610;28;20193;-75
2021/12/07 00:16:18;;;;;;;47.35;25.65;;;2.60;99.90;;;;;;5023371;28;20671;-74
2021/12/07 00:18:46;;;;;;;45.67;26.60;;;2.60;99.90;;;;;;5017279;28;20558;-74
2021/12/07 00:21:16;;;;;;;45.67;26.20;;;2.50;99.90;;;;;;5028256;28;20220;-74
2021/12/07 00:23:44;;;;;;;43.80;25.63;;;2.50;99.90;;;;;;5018872;28;20199;-75
2021/12/07 00:26:12;;;;;;;45.90;29.42;;;2.60;99.90;;;;;;5030389;28;20205;-74
2021/12/07 00:28:39;;;;;;;47.78;25.25;;;2.60;99.90;;;;;;5021880;28;20197;-74
2021/12/07 00:31:14;;;;;;;39.22;24.00;;;2.50;99.90;;;;;;5015052;28;20319;-73
2021/12/07 00:33:47;;;;;;;37.53;24.55;;;2.50;99.90;;;;;;5006762;28;20209;-74
2021/12/07 00:36:14;;;;;;;42.92;24.13;;;2.50;99.90;;;;;;5004824;28;20220;-73
2021/12/07 00:38:42;;;;;;;40.92;23.17;;;2.50;99.90;;;;;;5020839;28;20197;-73
2021/12/07 00:41:09;;;;;;;48.67;27.40;;;2.50;99.90;;;;;;5023898;28;20228;-75
2021/12/07 00:43:36;;;;;;;45.10;28.15;;;2.40;99.90;;;;;;5025730;28;20200;-75
2021/12/07 00:46:03;;;;;;;44.15;25.00;;;2.40;99.90;;;;;;5036962;28;20261;-74
2021/12/07 00:48:32;;;;;;;44.30;26.80;;;2.40;99.90;;;;;;5024781;28;20201;-72
2021/12/07 00:50:59;;;;;;;39.33;23.08;;;2.40;99.90;;;;;;5029453;28;20267;-73
2021/12/07 00:53:27;;;;;;;38.65;24.48;;;2.40;99.90;;;;;;5027833;28;20247;-74
2021/12/07 00:55:57;;;;;;;45.50;24.15;;;2.40;99.90;;;;;;5030321;28;20196;-75
2021/12/07 00:58:25;;;;;;;43.85;24.98;;;2.40;99.90;;;;;;5029345;28;20216;-75
2021/12/07 01:00:56;;;;;;;43.10;28.77;;;2.40;99.90;;;;;;5025883;28;20797;-74
2021/12/07 01:03:26;;;;;;;39.17;24.27;;;2.40;99.90;;;;;;5025202;28;20207;-74
2021/12/07 01:06:06;;;;;;;46.10;24.92;;;2.40;99.90;;;;;;5025895;28;20235;-74
2021/12/07 01:25:07;;;;;;;46.45;25.75;;;2.40;99.90;;;;;;5023392;28;20690;-75
2021/12/07 01:27:34;;;;;;;41.80;24.75;;;2.40;99.90;;;;;;5020002;28;20563;-75
2021/12/07 01:30:09;;;;;;;41.03;23.63;;;2.40;99.90;;;;;;5034390;28;20302;-74
2021/12/07 01:32:51;;;;;;;44.75;23.20;;;2.40;99.90;;;;;;5026716;28;20223;-74
2021/12/07 01:41:00;;;;;;;45.15;23.30;;;2.50;99.90;;;;;;5021432;28;20224;-75
2021/12/07 01:59:55;;;;;;;36.58;22.52;;;2.60;99.90;;;;;;5029149;28;20238;-75
2021/12/07 02:02:24;;;;;;;35.42;21.58;;;2.60;99.90;;;;;;5026738;28;20216;-75
2021/12/07 02:04:52;;;;;;;37.38;21.92;;;2.60;99.90;;;;;;5023636;28;20228;-75
2021/12/07 02:07:19;;;;;;;38.97;21.80;;;2.60;99.90;;;;;;5030031;28;20213;-74
2021/12/07 02:09:52;;;;;;;36.75;20.50;;;2.70;99.90;;;;;;5024498;28;20207;-74
2021/12/07 02:12:20;;;;;;;44.33;23.77;;;2.70;99.90;;;;;;5006760;28;20743;-75
2021/12/07 02:14:47;;;;;;;38.35;23.70;;;2.70;99.90;;;;;;5024154;28;20201;-74
2021/12/07 02:17:16;;;;;;;40.72;25.35;;;2.70;99.90;;;;;;5023606;28;20682;-75
2021/12/07 02:19:44;;;;;;;36.60;21.75;;;2.80;99.90;;;;;;5024866;28;20200;-75
2021/12/07 02:22:12;;;;;;;40.45;22.48;;;2.80;99.90;;;;;;5023738;28;20236;-74
2021/12/07 02:24:40;;;;;;;37.70;22.08;;;2.80;99.90;;;;;;5019955;28;20204;-73
2021/12/07 02:27:08;;;;;;;36.92;22.88;;;2.80;99.90;;;;;;5021274;28;20291;-74
2021/12/07 02:29:35;;;;;;;36.88;20.08;;;2.80;99.90;;;;;;5025377;28;20707;-73
2021/12/07 02:32:03;;;;;;;44.58;21.70;;;2.90;99.90;;;;;;5029467;28;20227;-73
2021/12/07 02:34:30;;;;;;;36.97;23.15;;;2.90;99.90;;;;;;5030974;28;20203;-73
2021/12/07 02:36:59;;;;;;;35.70;23.27;;;2.90;99.90;;;;;;5019261;28;20245;-73
2021/12/07 02:39:32;;;;;;;34.33;19.20;;;2.90;99.90;;;;;;5024052;28;20676;-73
2021/12/07 02:41:59;;;;;;;32.53;20.80;;;2.90;99.90;;;;;;5024010;28;20635;-74
2021/12/07 02:44:26;;;;;;;35.38;20.13;;;2.90;99.90;;;;;;5033522;28;20239;-74
2021/12/07 02:46:53;;;;;;;36.47;21.08;;;3.00;99.90;;;;;;5031192;28;20215;-75
2021/12/07 02:49:21;;;;;;;40.33;21.05;;;3.00;99.90;;;;;;5031783;28;20263;-74
2021/12/07 02:51:48;;;;;;;38.45;21.17;;;3.00;99.90;;;;;;5026615;28;20314;-73
2021/12/07 02:54:15;;;;;;;34.20;20.88;;;3.00;99.90;;;;;;5034184;28;20337;-74
2021/12/07 02:56:43;;;;;;;36.75;21.38;;;3.00;99.90;;;;;;5034265;28;20236;-74
2021/12/07 02:59:11;;;;;;;34.00;19.65;;;3.00;99.90;;;;;;5033440;28;20237;-73
2021/12/07 03:01:44;;;;;;;39.13;19.58;;;3.10;99.90;;;;;;5027853;28;20278;-73
2021/12/07 03:04:19;;;;;;;42.53;22.00;;;3.10;99.90;;;;;;5013905;28;20537;-72
2021/12/07 03:06:58;;;;;;;35.65;20.45;;;3.10;99.90;;;;;;5013978;28;20203;-73
2021/12/07 03:26:12;;;;;;;35.63;19.40;;;3.10;99.90;;;;;;5020118;28;20227;-74
2021/12/07 03:28:44;;;;;;;36.08;21.90;;;3.00;99.90;;;;;;5018676;28;20662;-74
2021/12/07 03:31:12;;;;;;;32.47;20.67;;;3.00;99.90;;;;;;5015313;28;20783;-74
2021/12/07 03:33:39;;;;;;;41.83;24.00;;;2.90;99.90;;;;;;5025183;28;20313;-73
2021/12/07 03:36:08;;;;;;;36.97;21.90;;;2.90;99.90;;;;;;5023012;28;20208;-74
2021/12/07 03:38:36;;;;;;;34.58;20.38;;;2.90;99.90;;;;;;5021702;28;20280;-74
2021/12/07 03:41:03;;;;;;;44.15;21.70;;;2.90;99.90;;;;;;5031930;28;20325;-73
2021/12/07 03:43:31;;;;;;;35.42;20.60;;;2.90;99.90;;;;;;5019521;28;20203;-75
2021/12/07 03:46:00;;;;;;;43.60;23.02;;;2.90;99.90;;;;;;5024731;28;20212;-74
2021/12/07 03:48:28;;;;;;;37.20;19.95;;;2.80;99.90;;;;;;5017496;28;20216;-74
2021/12/07 03:50:55;;;;;;;37.45;21.88;;;2.80;99.90;;;;;;5022531;28;20754;-74
2021/12/07 03:53:23;;;;;;;42.13;23.52;;;2.80;99.90;;;;;;5029806;28;20223;-74
2021/12/07 03:55:50;;;;;;;41.47;24.15;;;2.80;99.90;;;;;;5019524;28;20283;-74
2021/12/07 03:58:18;;;;;;;41.70;21.40;;;2.70;99.90;;;;;;5024320;28;20667;-74
2021/12/07 04:00:46;;;;;;;40.67;22.15;;;2.70;99.90;;;;;;5015733;28;20231;-74
2021/12/07 04:03:17;;;;;;;39.25;23.70;;;2.80;99.90;;;;;;5023879;28;20378;-74
2021/12/07 04:05:48;;;;;;;42.15;23.58;;;2.70;99.90;;;;;;5029603;28;20197;-76
2021/12/07 04:08:17;;;;;;;38.17;23.00;;;2.70;99.90;;;;;;5029543;28;20235;-74
2021/12/07 04:10:44;;;;;;;38.75;21.80;;;2.70;99.90;;;;;;5020539;28;20648;-74
2021/12/07 04:13:12;;;;;;;41.05;23.73;;;2.70;99.90;;;;;;5028688;28;20320;-74
2021/12/07 04:15:40;;;;;;;42.67;23.83;;;2.70;99.90;;;;;;5016090;28;20201;-74
2021/12/07 04:18:07;;;;;;;37.90;23.75;;;2.70;99.90;;;;;;5025617;28;20200;-74
2021/12/07 04:20:36;;;;;;;38.58;23.33;;;2.60;99.90;;;;;;5016361;28;20311;-75
2021/12/07 04:23:04;;;;;;;49.33;23.63;;;2.60;99.90;;;;;;5021332;28;20220;-73
2021/12/07 04:25:31;;;;;;;39.85;22.15;;;2.60;99.90;;;;;;5020843;28;20293;-74
2021/12/07 04:27:59;;;;;;;47.20;25.80;;;2.60;99.90;;;;;;5022861;28;20689;-75
2021/12/07 04:30:30;;;;;;;39.55;22.08;;;2.60;99.90;;;;;;5020938;28;20258;-74
2021/12/07 04:32:58;;;;;;;47.67;24.38;;;2.60;99.90;;;;;;5021394;28;20212;-75
2021/12/07 04:35:26;;;;;;;44.38;23.65;;;2.60;99.90;;;;;;5023359;28;20250;-74
2021/12/07 04:37:54;;;;;;;42.78;22.35;;;2.60;99.90;;;;;;5033994;28;20220;-74
2021/12/07 04:40:25;;;;;;;39.35;22.40;;;2.60;99.90;;;;;;5029877;28;20254;-74
2021/12/07 04:42:53;;;;;;;41.45;25.50;;;2.60;99.90;;;;;;5024740;28;20282;-74
2021/12/07 04:45:31;;;;;;;53.50;26.45;;;2.60;99.90;;;;;;5032849;28;20323;-74
2021/12/07 04:48:12;;;;;;;41.67;24.00;;;2.50;99.90;;;;;;5016603;28;20207;-74
2021/12/07 04:58:57;;;;;;;48.35;26.30;;;2.50;99.90;;;;;;5019464;28;20204;-74
2021/12/07 05:01:25;;;;;;;46.63;26.17;;;2.60;99.90;;;;;;5031854;28;20303;-75
2021/12/07 05:03:54;;;;;;;42.30;23.25;;;2.60;99.90;;;;;;5024125;28;20196;-74
2021/12/07 05:06:24;;;;;;;47.80;25.92;;;2.50;99.90;;;;;;5034164;28;20294;-74
2021/12/07 05:08:58;;;;;;;42.90;25.88;;;2.60;99.90;;;;;;5029735;28;20248;-73
2021/12/07 05:11:33;;;;;;;49.00;24.05;;;2.60;99.90;;;;;;5011512;28;20556;-74
2021/12/07 05:14:14;;;;;;;54.03;24.88;;;2.60;99.90;;;;;;5017221;28;20215;-73
2021/12/07 05:16:52;;;;;;;48.75;25.00;;;2.60;99.90;;;;;;5020314;28;20280;-75
2021/12/07 05:25:22;;;;;;;39.85;23.25;;;2.60;99.90;;;;;;5025635;28;20522;-73
2021/12/07 05:38:49;;;;;;;44.65;25.13;;;2.70;99.90;;;;;;5034592;28;20257;-73
2021/12/07 05:41:17;;;;;;;47.97;25.17;;;2.80;99.90;;;;;;5034575;28;20286;-73
2021/12/07 05:43:47;;;;;;;52.25;27.10;;;2.70;99.90;;;;;;5025425;28;20203;-73
2021/12/07 05:46:14;;;;;;;50.63;27.15;;;2.70;99.90;;;;;;5028223;28;20287;-73
2021/12/07 05:48:41;;;;;;;46.20;26.00;;;2.80;99.90;;;;;;5033689;28;20201;-73
2021/12/07 05:51:08;;;;;;;48.88;27.83;;;2.80;99.90;;;;;;5020637;28;20231;-73
2021/12/07 05:53:36;;;;;;;57.35;26.42;;;2.80;99.90;;;;;;5033023;28;20220;-70
2021/12/07 05:56:04;;;;;;;48.42;24.67;;;2.80;99.90;;;;;;5026085;28;20243;-71
2021/12/07 05:58:33;;;;;;;45.47;25.33;;;3.00;99.90;;;;;;5023280;28;20205;-71
2021/12/07 06:01:00;;;;;;;38.92;23.92;;;3.00;99.90;;;;;;5021841;28;20256;-72
2021/12/07 06:03:27;;;;;;;48.10;26.23;;;3.00;99.90;;;;;;5022628;28;20196;-71
2021/12/07 06:05:55;;;;;;;61.28;29.70;;;3.00;99.90;;;;;;5028795;28;20204;-73
2021/12/07 06:08:22;;;;;;;56.95;29.77;;;3.00;99.90;;;;;;5034111;28;20738;-73
2021/12/07 06:10:49;;;;;;;50.40;26.98;;;3.00;99.90;;;;;;5032267;28;20226;-73
2021/12/07 06:13:16;;;;;;;51.95;26.27;;;3.00;99.90;;;;;;5033233;28;20216;-74
2021/12/07 06:15:45;;;;;;;55.38;31.50;;;2.90;99.90;;;;;;5021385;28;20255;-73
2021/12/07 06:18:13;;;;;;;61.92;31.23;;;2.90;99.90;;;;;;5024665;28;20212;-73
2021/12/07 06:20:41;;;;;;;49.67;26.23;;;2.90;99.90;;;;;;5022328;28;20247;-74
2021/12/07 06:23:09;;;;;;;42.20;26.83;;;3.00;99.90;;;;;;5020916;28;20208;-74
2021/12/07 06:25:36;;;;;;;53.92;27.23;;;3.00;99.90;;;;;;5033262;28;20295;-73
2021/12/07 06:28:04;;;;;;;51.60;26.95;;;3.00;99.90;;;;;;5027206;28;20215;-75
2021/12/07 06:30:37;;;;;;;60.63;30.73;;;3.10;99.90;;;;;;5019634;28;20307;-74
2021/12/07 06:33:05;;;;;;;50.63;27.00;;;3.00;99.90;;;;;;5012565;28;20564;-72
2021/12/07 06:35:34;;;;;;;50.35;27.50;;;3.00;99.90;;;;;;5025449;28;20227;-72
2021/12/07 06:38:01;;;;;;;52.17;28.08;;;3.00;99.90;;;;;;5025476;28;20841;-73
2021/12/07 06:40:28;;;;;;;58.33;29.50;;;3.10;99.90;;;;;;5027610;28;20651;-72
2021/12/07 06:42:59;;;;;;;50.67;26.15;;;3.00;99.90;;;;;;5028032;28;20220;-74
2021/12/07 06:45:27;;;;;;;56.35;30.08;;;2.90;99.90;;;;;;5022537;28;20365;-73
2021/12/07 06:47:55;;;;;;;47.97;26.90;;;2.90;99.90;;;;;;5028565;28;20291;-74
2021/12/07 06:50:24;;;;;;;55.22;29.17;;;2.90;99.90;;;;;;5030936;28;20283;-73
2021/12/07 06:52:52;;;;;;;59.33;30.10;;;2.90;99.90;;;;;;5023647;28;20302;-71
2021/12/07 06:55:19;;;;;;;51.42;28.77;;;2.90;99.90;;;;;;5024647;28;20670;-73
2021/12/07 06:57:46;;;;;;;54.17;28.67;;;3.00;99.90;;;;;;5028809;28;20623;-74
2021/12/07 07:00:15;;;;;;;67.68;28.70;;;3.10;99.90;;;;;;5020833;28;20580;-72
2021/12/07 07:02:42;;;;;;;56.63;28.42;;;3.10;99.90;;;;;;5017430;28;20197;-73
2021/12/07 07:05:10;;;;;;;66.60;32.05;;;3.10;99.90;;;;;;5023678;28;20212;-73
2021/12/07 07:07:40;;;;;;;44.33;26.77;;;3.10;99.90;;;;;;5022653;28;20281;-72
2021/12/07 07:10:10;;;;;;;46.70;29.33;;;3.10;99.90;;;;;;5029148;28;20311;-73
2021/12/07 07:12:37;;;;;;;55.50;30.53;;;3.30;99.90;;;;;;5031256;28;20530;-73
2021/12/07 07:15:05;;;;;;;50.33;27.25;;;3.20;99.90;;;;;;5033372;28;20475;-73
2021/12/07 07:17:32;;;;;;;53.08;27.05;;;3.20;99.90;;;;;;5018336;28;20201;-71
2021/12/07 07:19:59;;;;;;;45.95;28.52;;;3.30;99.90;;;;;;5022581;28;20302;-73
2021/12/07 07:22:26;;;;;;;52.70;30.45;;;3.40;99.90;;;;;;5017099;28;20296;-73
2021/12/07 07:24:54;;;;;;;56.47;29.45;;;3.30;99.90;;;;;;5021729;28;20207;-74
2021/12/07 07:27:22;;;;;;;48.40;27.92;;;3.20;99.90;;;;;;5031546;28;20204;-72
2021/12/07 07:29:49;;;;;;;46.55;25.02;;;3.40;99.90;;;;;;5016194;28;20239;-70
2021/12/07 07:32:16;;;;;;;49.35;26.52;;;3.30;99.90;;;;;;5032111;28;20204;-71
2021/12/07 07:34:43;;;;;;;51.65;27.83;;;3.50;99.90;;;;;;5028599;28;20781;-71
2021/12/07 07:37:10;;;;;;;46.17;28.00;;;3.40;99.90;;;;;;5028419;28;20204;-71
2021/12/07 07:39:37;;;;;;;47.20;26.48;;;3.40;99.90;;;;;;5028229;28;20208;-71
2021/12/07 07:42:06;;;;;;;49.55;24.73;;;3.50;99.90;;;;;;5018603;28;20203;-71
2021/12/07 07:44:33;;;;;;;57.53;27.23;;;3.50;99.90;;;;;;5020854;28;20232;-72
2021/12/07 07:47:00;;;;;;;46.63;26.90;;;3.40;99.90;;;;;;5027646;28;20291;-71
2021/12/07 07:49:27;;;;;;;51.00;28.25;;;3.40;99.90;;;;;;5020759;28;20267;-71
2021/12/07 07:51:54;;;;;;;52.03;26.42;;;3.40;99.90;;;;;;5026218;28;20345;-70
2021/12/07 07:54:21;;;;;;;61.60;29.70;;;3.30;99.90;;;;;;5018891;28;20223;-71
2021/12/07 07:56:48;;;;;;;46.80;26.60;;;3.20;99.90;;;;;;5019956;28;20251;-70
2021/12/07 07:59:17;;;;;;;53.42;26.75;;;3.20;99.90;;;;;;5016930;28;20842;-71
2021/12/07 08:01:44;;;;;;;50.90;27.67;;;3.10;99.90;;;;;;5019229;28;20244;-71
2021/12/07 08:04:11;;;;;;;52.72;28.48;;;3.20;99.90;;;;;;5023027;28;20287;-71
2021/12/07 08:06:38;;;;;;;55.38;29.95;;;3.20;99.90;;;;;;5021565;28;20208;-71
2021/12/07 08:09:08;;;;;;;40.38;24.17;;;3.20;99.90;;;;;;5030855;28;20613;-71
2021/12/07 08:11:35;;;;;;;50.45;26.95;;;3.30;99.90;;;;;;5028520;28;20221;-72
2021/12/07 08:14:02;;;;;;;50.05;26.73;;;3.30;99.90;;;;;;5027368;28;20244;-71
2021/12/07 08:16:31;;;;;;;41.58;25.20;;;3.40;99.90;;;;;;5027053;28;20291;-70
2021/12/07 08:18:58;;;;;;;54.28;26.95;;;3.50;99.90;;;;;;5029801;28;20315;-71
2021/12/07 08:21:25;;;;;;;49.75;27.70;;;3.40;99.90;;;;;;5022799;28;20235;-72
2021/12/07 08:23:52;;;;;;;39.80;23.90;;;3.50;99.90;;;;;;5026328;28;20195;-72
2021/12/07 08:26:21;;;;;;;46.20;26.33;;;3.60;99.90;;;;;;5017928;28;20243;-71
2021/12/07 08:28:48;;;;;;;41.03;22.05;;;3.70;99.90;;;;;;5024254;28;20210;-72
2021/12/07 08:31:21;;;;;;;40.15;24.90;;;3.80;99.90;;;;;;5024162;28;20689;-70
2021/12/07 08:33:49;;;;;;;40.13;23.17;;;3.80;99.90;;;;;;5021965;28;20758;-72
2021/12/07 08:36:17;;;;;;;43.85;24.52;;;3.60;99.90;;;;;;5023667;28;20192;-73
2021/12/07 08:38:44;;;;;;;46.45;26.70;;;3.50;99.90;;;;;;5029526;28;20207;-71
2021/12/07 08:41:12;;;;;;;42.60;23.92;;;3.60;99.90;;;;;;5031595;28;20318;-71
2021/12/07 08:43:41;;;;;;;40.78;26.33;;;3.60;99.90;;;;;;5029144;28;20202;-70
2021/12/07 08:46:10;;;;;;;40.53;25.35;;;3.60;99.90;;;;;;5030291;28;20251;-70
2021/12/07 08:48:37;;;;;;;41.63;24.08;;;3.60;99.90;;;;;;5031990;28;20235;-72
2021/12/07 08:51:07;;;;;;;43.15;23.15;;;3.60;99.90;;;;;;5021264;28;20311;-71
2021/12/07 08:53:37;;;;;;;38.63;24.40;;;3.80;99.90;;;;;;5024778;28;20236;-71
2021/12/07 09:01:34;;;;;;;36.92;21.40;;;3.80;99.90;;;;;;5027302;28;20235;-73
2021/12/07 09:04:02;;;;;;;37.35;21.50;;;4.00;99.90;;;;;;5025822;28;20205;-71
2021/12/07 09:06:31;;;;;;;35.47;21.23;;;4.10;99.90;;;;;;5028845;28;20247;-72
2021/12/07 09:08:59;;;;;;;41.15;22.98;;;4.50;99.90;;;;;;5029218;28;20288;-70
2021/12/07 09:11:26;;;;;;;30.65;20.38;;;4.80;99.90;;;;;;5033228;28;20260;-72
2021/12/07 09:13:54;;;;;;;31.05;19.98;;;4.80;99.90;;;;;;5022638;28;20216;-72
2021/12/07 09:16:22;;;;;;;26.70;16.73;;;4.80;99.90;;;;;;5033664;28;20208;-72
2021/12/07 09:18:50;;;;;;;34.70;21.25;;;5.00;99.90;;;;;;5030374;28;20209;-73
2021/12/07 09:21:17;;;;;;;30.10;20.48;;;5.00;99.90;;;;;;5031310;28;20224;-73
2021/12/07 09:23:52;;;;;;;30.10;17.95;;;4.90;99.90;;;;;;5026126;28;20284;-72
2021/12/07 09:26:19;;;;;;;25.25;15.95;;;5.00;99.90;;;;;;5024404;28;20287;-71
2021/12/07 09:28:47;;;;;;;27.30;19.95;;;5.30;99.90;;;;;;5025513;28;20576;-72
2021/12/07 09:31:14;;;;;;;26.60;17.75;;;5.60;99.90;;;;;;5019235;28;20224;-72
2021/12/07 09:33:42;;;;;;;25.70;18.10;;;5.40;99.90;;;;;;5029037;28;20213;-71
2021/12/07 09:36:11;;;;;;;25.15;17.02;;;5.50;99.90;;;;;;5025170;28;20204;-71
2021/12/07 09:38:38;;;;;;;29.17;20.17;;;5.30;99.90;;;;;;5032602;28;20663;-70
2021/12/07 09:41:07;;;;;;;27.60;19.70;;;5.20;99.90;;;;;;5031636;28;20303;-72
2021/12/07 09:43:36;;;;;;;27.40;19.63;;;5.10;99.90;;;;;;5030052;28;20204;-71
2021/12/07 09:46:03;;;;;;;28.00;19.55;;;5.10;99.90;;;;;;5029207;28;20635;-71
2021/12/07 09:48:30;;;;;;;29.38;18.00;;;5.00;99.90;;;;;;5019007;28;20288;-70
2021/12/07 09:50:57;;;;;;;34.05;20.33;;;5.10;99.90;;;;;;5034106;28;20248;-71
2021/12/07 09:53:27;;;;;;;27.98;18.88;;;5.10;99.90;;;;;;5034218;28;20228;-71
2021/12/07 09:55:54;;;;;;;32.63;21.85;;;4.80;99.90;;;;;;5034917;28;20280;-73
2021/12/07 09:58:25;;;;;;;29.27;20.15;;;4.90;99.90;;;;;;5034989;28;20546;-72
2021/12/07 10:00:52;;;;;;;31.35;21.27;;;4.90;99.90;;;;;;5034239;28;20252;-73
2021/12/07 10:03:21;;;;;;;32.45;21.08;;;4.90;99.90;;;;;;5032456;28;20309;-71
2021/12/07 10:05:49;;;;;;;34.47;22.80;;;4.80;99.90;;;;;;5020879;28;20240;-72
2021/12/07 10:08:16;;;;;;;29.75;19.88;;;4.80;99.90;;;;;;5031130;28;20226;-72
2021/12/07 10:10:45;;;;;;;35.72;22.83;;;4.80;99.90;;;;;;5022452;28;20224;-71
2021/12/07 10:13:15;;;;;;;31.73;20.98;;;4.80;99.90;;;;;;5030842;28;20201;-72
2021/12/07 10:15:45;;;;;;;27.00;18.60;;;4.80;99.90;;;;;;5016103;28;20220;-72
2021/12/07 10:18:16;;;;;;;34.10;22.67;;;4.90;99.90;;;;;;5023335;28;20292;-72
2021/12/07 10:20:45;;;;;;;27.17;18.05;;;4.90;99.90;;;;;;5023242;28;20256;-70
2021/12/07 10:23:31;;;;;;;32.78;19.40;;;5.00;99.90;;;;;;5020539;28;20204;-73
2021/12/07 10:26:02;;;;;;;35.33;20.75;;;5.00;99.90;;;;;;5021467;28;20241;-71
2021/12/07 10:28:32;;;;;;;31.75;19.52;;;5.20;99.90;;;;;;5025802;28;20247;-72
2021/12/07 10:31:05;;;;;;;33.72;20.83;;;5.00;99.90;;;;;;5023200;28;20261;-73
2021/12/07 10:33:36;;;;;;;34.03;20.85;;;4.90;99.90;;;;;;5021073;28;20586;-72
2021/12/07 10:36:09;;;;;;;35.92;21.48;;;5.00;99.90;;;;;;5021082;28;20217;-71
2021/12/07 10:38:38;;;;;;;31.17;19.60;;;5.10;99.90;;;;;;5023877;28;20202;-72
2021/12/07 10:41:07;;;;;;;33.03;19.80;;;5.10;99.90;;;;;;5021655;28;20235;-71
2021/12/07 10:43:58;;;;;;;31.20;19.90;;;5.20;99.90;;;;;;5017798;28;20210;-72
2021/12/07 10:46:39;;;;;;;37.35;21.52;;;5.30;99.90;;;;;;5019446;28;20297;-70
2021/12/07 10:49:19;;;;;;;31.20;19.85;;;5.30;99.90;;;;;;5024262;28;20600;-70
2021/12/07 10:52:12;;;;;;;28.77;19.05;;;5.30;99.90;;;;;;5023933;28;20226;-71
2021/12/07 10:54:43;;;;;;;29.88;19.42;;;5.30;99.90;;;;;;5016522;28;20232;-71
2021/12/07 10:57:14;;;;;;;31.85;20.45;;;5.30;99.90;;;;;;5022800;28;20212;-70
2021/12/07 10:59:53;;;;;;;26.65;18.38;;;5.20;99.90;;;;;;5027867;28;20279;-72
2021/12/07 11:02:22;;;;;;;27.85;19.00;;;5.20;99.90;;;;;;5019544;28;20266;-71
2021/12/07 11:04:52;;;;;;;30.63;18.70;;;5.30;99.90;;;;;;5027347;28;20193;-72
2021/12/07 11:07:22;;;;;;;30.30;21.35;;;5.30;99.90;;;;;;5026405;28;20711;-70
2021/12/07 11:09:59;;;;;;;34.30;20.05;;;5.40;99.90;;;;;;5028176;28;20279;-71
2021/12/07 11:12:29;;;;;;;26.52;17.90;;;5.40;99.90;;;;;;5004867;28;20211;-72
2021/12/07 11:15:00;;;;;;;29.63;18.13;;;5.50;99.90;;;;;;5025451;28;20230;-71
2021/12/07 11:17:31;;;;;;;31.20;18.30;;;5.30;99.90;;;;;;5022731;28;20230;-72
2021/12/07 11:20:00;;;;;;;39.92;19.17;;;5.40;99.90;;;;;;5025317;28;20248;-72
2021/12/07 11:22:32;;;;;;;27.75;18.90;;;5.30;99.90;;;;;;5025445;28;20200;-71
2021/12/07 11:25:03;;;;;;;23.13;17.00;;;5.40;99.90;;;;;;5021777;28;20205;-72
2021/12/07 11:30:18;;;;;;;28.42;16.77;;;5.50;99.90;;;;;;5012282;28;20227;-72
2021/12/07 11:32:55;;;;;;;30.10;17.45;;;5.30;99.90;;;;;;5019516;28;20360;-72
2021/12/07 11:35:26;;;;;;;27.23;18.63;;;5.40;99.90;;;;;;5020733;28;20282;-71
2021/12/07 11:37:55;;;;;;;23.30;15.93;;;5.40;99.90;;;;;;5030415;28;20258;-72
2021/12/07 11:40:27;;;;;;;25.13;16.00;;;5.40;99.90;;;;;;5020795;28;20228;-71
2021/12/07 11:42:55;;;;;;;27.25;18.38;;;5.60;99.90;;;;;;5029445;28;20201;-71
2021/12/07 11:45:25;;;;;;;28.27;19.25;;;5.60;99.90;;;;;;5017223;28;20190;-70
2021/12/07 11:47:57;;;;;;;28.38;16.95;;;5.40;99.90;;;;;;5025047;28;20208;-73
2021/12/07 11:50:35;;;;;;;31.05;18.05;;;5.50;99.90;;;;;;5024385;28;20323;-73
2021/12/07 11:53:05;;;;;;;39.97;16.48;;;5.50;99.90;;;;;;5020700;28;20207;-71
2021/12/07 11:55:35;;;;;;;34.78;17.58;;;5.70;99.90;;;;;;5027005;28;20244;-71
2021/12/07 11:58:03;;;;;;;22.58;15.75;;;5.60;99.90;;;;;;5016628;28;20336;-72
2021/12/07 12:00:35;;;;;;;29.63;15.98;;;5.60;99.90;;;;;;5025411;28;20353;-72
2021/12/07 12:03:06;;;;;;;23.67;15.57;;;5.70;99.90;;;;;;5023998;28;20568;-73
2021/12/07 12:05:34;;;;;;;32.08;15.10;;;5.70;99.90;;;;;;5025661;28;20228;-72
2021/12/07 12:08:01;;;;;;;29.15;16.83;;;5.80;99.90;;;;;;5025663;28;20207;-73
2021/12/07 12:10:29;;;;;;;27.67;15.23;;;5.80;99.90;;;;;;5020344;28;20311;-72
2021/12/07 12:13:12;;;;;;;24.08;14.63;;;5.80;99.90;;;;;;5028214;28;20263;-72
2021/12/07 12:15:55;;;;;;;24.75;14.63;;;5.80;99.90;;;;;;5021398;28;20250;-73
2021/12/07 12:18:37;;;;;;;29.88;16.67;;;5.90;99.90;;;;;;5019345;28;20203;-72
2021/12/07 12:21:16;;;;;;;28.02;14.50;;;5.80;99.90;;;;;;5004062;28;20224;-71
2021/12/07 12:23:53;;;;;;;31.95;18.60;;;5.70;99.90;;;;;;5017554;28;20617;-73
2021/12/07 12:26:27;;;;;;;27.83;17.73;;;5.80;99.90;;;;;;5010021;28;20208;-71
2021/12/07 12:29:14;;;;;;;24.10;15.65;;;5.80;99.90;;;;;;5020072;28;20211;-72
2021/12/07 12:31:49;;;;;;;30.38;17.35;;;5.70;99.90;;;;;;5018038;28;20225;-72
2021/12/07 12:34:20;;;;;;;28.88;15.55;;;5.70;99.90;;;;;;5019662;28;20308;-71
2021/12/07 12:36:59;;;;;;;31.45;17.10;;;5.90;99.90;;;;;;5025131;28;20234;-71
2021/12/07 12:39:44;;;;;;;26.92;16.17;;;6.00;99.90;;;;;;5025823;28;20211;-71
2021/12/07 12:42:16;;;;;;;22.30;15.20;;;6.00;99.90;;;;;;5022389;28;20289;-72
2021/12/07 12:44:43;;;;;;;26.88;17.80;;;6.10;99.90;;;;;;5030809;28;20200;-72
2021/12/07 12:47:10;;;;;;;24.10;16.13;;;6.00;99.90;;;;;;5026433;28;20223;-72
2021/12/07 12:49:40;;;;;;;23.20;14.30;;;6.00;99.90;;;;;;5028677;28;20309;-72
2021/12/07 12:52:08;;;;;;;29.67;15.70;;;6.00;99.90;;;;;;5026140;28;20198;-71
2021/12/07 12:54:40;;;;;;;25.63;15.27;;;5.90;99.90;;;;;;5026166;28;20300;-72
2021/12/07 12:57:14;;;;;;;22.33;15.52;;;6.00;99.90;;;;;;5023814;28;20214;-72
2021/12/07 12:59:43;;;;;;;27.85;19.10;;;6.10;99.90;;;;;;5023278;28;20206;-71
2021/12/07 13:02:11;;;;;;;27.08;16.35;;;6.00;99.90;;;;;;5021979;28;20205;-72
2021/12/07 13:04:40;;;;;;;30.55;18.83;;;6.00;99.90;;;;;;5031605;28;20190;-72
2021/12/07 13:07:24;;;;;;;27.00;15.40;;;6.00;99.90;;;;;;5032431;28;20200;-71
2021/12/07 13:09:56;;;;;;;24.95;15.55;;;6.10;99.90;;;;;;5026470;28;20216;-72
2021/12/07 13:12:25;;;;;;;27.83;17.00;;;6.20;99.90;;;;;;5033799;28;20302;-72
2021/12/07 13:14:56;;;;;;;27.73;16.25;;;6.10;99.90;;;;;;5034468;28;20244;-72
2021/12/07 13:17:33;;;;;;;31.95;17.17;;;6.10;99.90;;;;;;5030626;28;20237;-72
2021/12/07 13:20:32;;;;;;;38.35;19.95;;;6.20;99.90;;;;;;5021400;28;20313;-72
2021/12/07 13:23:07;;;;;;;31.25;15.45;;;6.10;99.90;;;;;;5019887;28;20221;-72
2021/12/07 13:25:43;;;;;;;31.08;16.85;;;6.00;99.90;;;;;;5035452;28;20196;-72
2021/12/07 13:28:21;;;;;;;28.60;18.15;;;6.20;99.90;;;;;;5024252;28;20212;-72
2021/12/07 13:31:14;;;;;;;33.95;18.20;;;6.20;99.90;;;;;;5009603;28;20684;-71
2021/12/07 13:33:48;;;;;;;48.90;19.48;;;6.20;99.90;;;;;;5028622;28;20285;-71
2021/12/07 13:36:43;;;;;;;34.03;18.83;;;6.20;99.90;;;;;;5021606;28;20217;-71
2021/12/07 13:39:37;;;;;;;37.22;19.05;;;6.20;99.90;;;;;;5025240;28;20651;-72
2021/12/07 13:42:07;;;;;;;34.08;20.50;;;6.20;99.90;;;;;;5032743;28;20289;-72
2021/12/07 13:44:37;;;;;;;30.88;18.23;;;6.20;99.90;;;;;;5022797;28;20295;-72
2021/12/07 13:47:07;;;;;;;29.45;17.88;;;6.20;99.90;;;;;;5027130;28;20267;-73
2021/12/07 13:49:36;;;;;;;29.98;18.48;;;6.20;99.90;;;;;;5022592;28;20243;-72
2021/12/07 13:52:10;;;;;;;29.20;19.58;;;6.30;99.90;;;;;;5021464;28;20285;-73
2021/12/07 13:54:41;;;;;;;30.52;18.50;;;6.40;99.90;;;;;;5026040;28;20292;-71
2021/12/07 13:57:13;;;;;;;34.63;18.38;;;6.40;99.90;;;;;;5023547;28;20210;-72
2021/12/07 13:59:40;;;;;;;27.55;18.45;;;6.40;99.90;;;;;;5024672;28;20601;-73
2021/12/07 14:02:08;;;;;;;29.20;18.58;;;6.40;99.90;;;;;;5023747;28;20292;-71
2021/12/07 14:04:35;;;;;;;31.35;17.35;;;6.40;99.90;;;;;;5028524;28;20227;-71
2021/12/07 14:07:02;;;;;;;36.45;18.27;;;6.40;99.90;;;;;;5027604;28;20285;-73
2021/12/07 14:09:32;;;;;;;43.10;20.23;;;6.40;99.90;;;;;;5026407;28;20221;-71
2021/12/07 14:12:00;;;;;;;32.38;19.38;;;6.50;99.90;;;;;;5030460;28;20202;-73
2021/12/07 14:14:28;;;;;;;23.42;16.52;;;6.50;99.90;;;;;;5032380;28;20257;-73
2021/12/07 14:16:57;;;;;;;32.05;20.42;;;6.40;99.90;;;;;;5034242;28;20211;-72
2021/12/07 14:19:25;;;;;;;29.63;19.48;;;6.30;99.90;;;;;;5029909;28;20293;-72